sensor_id;sensor_type;location;lat;lon;timestamp;P1;durP1;ratioP1;P2;durP2;ratioP2
76119;SDS011;64852;48.092;-1.640;2023-10-19T00:02:04;31.27;;;29.08;;
76119;SDS011;64852;48.092;-1.640;2023-10-19T00:04:33;29.70;;;27.80;;
76119;SDS011;64852;48.092;-1.640;2023-10-19T00:07:03;30.23;;;28.23;;
76119;SDS011;64852;48.092;-1.640;2023-10-19T00:09:31;32.78;;;30.58;;
76119;SDS011;64852;48.092;-1.640;2023-10-19T00:12:02;33.70;;;31.30;;
76119;SDS011;64852;48.092;-1.640;2023-10-19T00:14:34;33.70;;;31.58;;
76119;SDS011;64852;48.092;-1.640;2023-10-19T00:17:00;33.75;;;31.55;;
76119;SDS011;64852;48.092;-1.640;2023-10-19T00:19:31;32.95;;;30.83;;
76119;SDS011;64852;48.092;-1.640;2023-10-19T00:22:23;31.88;;;29.88;;
76119;SDS011;64852;48.092;-1.640;2023-10-19T00:24:49;31.70;;;29.60;;
76119;SDS011;64852;48.092;-1.640;2023-10-19T00:27:15;32.20;;;30.05;;
76119;SDS011;64852;48.092;-1.640;2023-10-19T00:29:42;31.90;;;29.20;;
76119;SDS011;64852;48.092;-1.640;2023-10-19T00:32:14;34.50;;;31.50;;
76119;SDS011;64852;48.092;-1.640;2023-10-19T00:34:42;34.45;;;31.45;;
76119;SDS011;64852;48.092;-1.640;2023-10-19T00:37:15;33.47;;;31.08;;
76119;SDS011;64852;48.092;-1.640;2023-10-19T00:39:44;31.55;;;29.65;;
76119;SDS011;64852;48.092;-1.640;2023-10-19T00:42:15;32.70;;;30.70;;
76119;SDS011;64852;48.092;-1.640;2023-10-19T00:44:45;30.00;;;28.00;;
76119;SDS011;64852;48.092;-1.640;2023-10-19T00:47:15;36.97;;;34.67;;
76119;SDS011;64852;48.092;-1.640;2023-10-19T00:49:44;37.40;;;35.00;;
76119;SDS011;64852;48.092;-1.640;2023-10-19T00:52:11;39.20;;;35.70;;
76119;SDS011;64852;48.092;-1.640;2023-10-19T00:54:44;37.83;;;35.03;;
76119;SDS011;64852;48.092;-1.640;2023-10-19T00:57:18;35.85;;;33.42;;
76119;SDS011;64852;48.092;-1.640;2023-10-19T01:00:00;31.30;;;29.40;;
76119;SDS011;64852;48.092;-1.640;2023-10-19T01:02:47;33.83;;;31.52;;
76119;SDS011;64852;48.092;-1.640;2023-10-19T01:05:16;33.90;;;31.70;;
76119;SDS011;64852;48.092;-1.640;2023-10-19T01:07:46;33.40;;;31.20;;
76119;SDS011;64852;48.092;-1.640;2023-10-19T01:10:18;32.28;;;30.27;;
76119;SDS011;64852;48.092;-1.640;2023-10-19T01:12:48;32.83;;;30.83;;
76119;SDS011;64852;48.092;-1.640;2023-10-19T01:15:19;33.30;;;31.10;;
76119;SDS011;64852;48.092;-1.640;2023-10-19T01:17:57;31.73;;;29.83;;
76119;SDS011;64852;48.092;-1.640;2023-10-19T01:22:57;32.67;;;30.67;;
76119;SDS011;64852;48.092;-1.640;2023-10-19T01:31:12;33.90;;;31.80;;
76119;SDS011;64852;48.092;-1.640;2023-10-19T01:33:42;33.95;;;31.85;;
76119;SDS011;64852;48.092;-1.640;2023-10-19T01:36:11;34.38;;;32.05;;
76119;SDS011;64852;48.092;-1.640;2023-10-19T01:38:57;33.97;;;31.83;;
76119;SDS011;64852;48.092;-1.640;2023-10-19T01:41:27;34.20;;;32.10;;
76119;SDS011;64852;48.092;-1.640;2023-10-19T01:43:53;34.33;;;32.15;;
76119;SDS011;64852;48.092;-1.640;2023-10-19T02:45:30;33.72;;;31.35;;
76119;SDS011;64852;48.092;-1.640;2023-10-19T02:47:57;36.67;;;33.97;;
76119;SDS011;64852;48.092;-1.640;2023-10-19T02:50:23;28.92;;;26.63;;
76119;SDS011;64852;48.092;-1.640;2023-10-19T02:52:51;28.17;;;25.92;;
76119;SDS011;64852;48.092;-1.640;2023-10-19T02:55:18;27.95;;;25.73;;
76119;SDS011;64852;48.092;-1.640;2023-10-19T02:57:50;28.85;;;26.35;;
76119;SDS011;64852;48.092;-1.640;2023-10-19T03:00:16;27.93;;;25.63;;
76119;SDS011;64852;48.092;-1.640;2023-10-19T03:02:45;28.45;;;26.08;;
76119;SDS011;64852;48.092;-1.640;2023-10-19T03:05:12;28.25;;;25.85;;
76119;SDS011;64852;48.092;-1.640;2023-10-19T03:07:42;27.63;;;25.33;;
76119;SDS011;64852;48.092;-1.640;2023-10-19T03:10:11;27.63;;;25.33;;
76119;SDS011;64852;48.092;-1.640;2023-10-19T03:12:50;27.58;;;25.33;;
76119;SDS011;64852;48.092;-1.640;2023-10-19T03:15:17;29.33;;;26.92;;
76119;SDS011;64852;48.092;-1.640;2023-10-19T03:17:46;27.75;;;25.52;;
76119;SDS011;64852;48.092;-1.640;2023-10-19T03:20:12;28.17;;;25.88;;
76119;SDS011;64852;48.092;-1.640;2023-10-19T03:22:39;30.75;;;27.10;;
76119;SDS011;64852;48.092;-1.640;2023-10-19T03:25:05;27.15;;;24.95;;
76119;SDS011;64852;48.092;-1.640;2023-10-19T03:30:31;26.10;;;23.67;;
76119;SDS011;64852;48.092;-1.640;2023-10-19T03:35:24;24.75;;;22.77;;
76119;SDS011;64852;48.092;-1.640;2023-10-19T03:37:50;24.07;;;22.17;;
76119;SDS011;64852;48.092;-1.640;2023-10-19T03:40:17;25.80;;;23.60;;
76119;SDS011;64852;48.092;-1.640;2023-10-19T03:42:52;24.40;;;22.50;;
76119;SDS011;64852;48.092;-1.640;2023-10-19T03:45:20;23.83;;;21.98;;
76119;SDS011;64852;48.092;-1.640;2023-10-19T03:47:49;22.95;;;21.20;;
76119;SDS011;64852;48.092;-1.640;2023-10-19T03:50:15;23.75;;;21.95;;
76119;SDS011;64852;48.092;-1.640;2023-10-19T03:52:45;22.98;;;21.27;;
76119;SDS011;64852;48.092;-1.640;2023-10-19T03:55:11;24.03;;;22.13;;
76119;SDS011;64852;48.092;-1.640;2023-10-19T04:02:41;23.50;;;21.70;;
76119;SDS011;64852;48.092;-1.640;2023-10-19T04:05:07;25.75;;;23.70;;
76119;SDS011;64852;48.092;-1.640;2023-10-19T04:07:39;25.92;;;23.92;;
76119;SDS011;64852;48.092;-1.640;2023-10-19T04:12:32;25.55;;;23.55;;
76119;SDS011;64852;48.092;-1.640;2023-10-19T04:15:03;26.13;;;24.13;;
76119;SDS011;64852;48.092;-1.640;2023-10-19T04:17:51;25.45;;;23.55;;
76119;SDS011;64852;48.092;-1.640;2023-10-19T04:20:20;24.88;;;22.98;;
76119;SDS011;64852;48.092;-1.640;2023-10-19T04:23:00;24.17;;;22.38;;
76119;SDS011;64852;48.092;-1.640;2023-10-19T04:25:31;25.25;;;23.45;;
76119;SDS011;64852;48.092;-1.640;2023-10-19T04:27:57;29.20;;;27.00;;
76119;SDS011;64852;48.092;-1.640;2023-10-19T04:30:23;33.13;;;30.73;;
76119;SDS011;64852;48.092;-1.640;2023-10-19T04:32:51;33.88;;;30.73;;
76119;SDS011;64852;48.092;-1.640;2023-10-19T04:35:26;31.88;;;29.40;;
76119;SDS011;64852;48.092;-1.640;2023-10-19T04:37:55;30.02;;;27.92;;
76119;SDS011;64852;48.092;-1.640;2023-10-19T04:42:48;23.20;;;21.40;;
76119;SDS011;64852;48.092;-1.640;2023-10-19T04:45:16;24.52;;;22.63;;
76119;SDS011;64852;48.092;-1.640;2023-10-19T04:47:41;24.40;;;22.60;;
76119;SDS011;64852;48.092;-1.640;2023-10-19T04:50:07;24.13;;;22.33;;
76119;SDS011;64852;48.092;-1.640;2023-10-19T04:52:35;25.33;;;23.33;;
76119;SDS011;64852;48.092;-1.640;2023-10-19T04:55:02;23.70;;;21.90;;
76119;SDS011;64852;48.092;-1.640;2023-10-19T04:57:28;23.60;;;21.80;;
76119;SDS011;64852;48.092;-1.640;2023-10-19T04:59:54;24.58;;;22.67;;
76119;SDS011;64852;48.092;-1.640;2023-10-19T05:02:20;23.75;;;21.95;;
76119;SDS011;64852;48.092;-1.640;2023-10-19T05:04:46;24.40;;;22.60;;
76119;SDS011;64852;48.092;-1.640;2023-10-19T05:07:12;25.50;;;23.35;;
76119;SDS011;64852;48.092;-1.640;2023-10-19T05:09:39;23.95;;;22.15;;
76119;SDS011;64852;48.092;-1.640;2023-10-19T05:12:06;23.73;;;21.93;;
76119;SDS011;64852;48.092;-1.640;2023-10-19T05:14:35;24.38;;;22.58;;
76119;SDS011;64852;48.092;-1.640;2023-10-19T05:17:04;24.02;;;22.23;;
76119;SDS011;64852;48.092;-1.640;2023-10-19T05:19:33;23.48;;;21.75;;
76119;SDS011;64852;48.092;-1.640;2023-10-19T05:22:04;23.33;;;21.63;;
76119;SDS011;64852;48.092;-1.640;2023-10-19T05:24:33;23.58;;;21.88;;
76119;SDS011;64852;48.092;-1.640;2023-10-19T05:29:25;23.20;;;21.50;;
76119;SDS011;64852;48.092;-1.640;2023-10-19T05:31:51;23.25;;;21.55;;
76119;SDS011;64852;48.092;-1.640;2023-10-19T05:34:25;23.35;;;21.60;;
76119;SDS011;64852;48.092;-1.640;2023-10-19T05:36:54;23.25;;;21.55;;
76119;SDS011;64852;48.092;-1.640;2023-10-19T05:39:23;23.40;;;21.60;;
76119;SDS011;64852;48.092;-1.640;2023-10-19T05:41:52;23.35;;;21.55;;
76119;SDS011;64852;48.092;-1.640;2023-10-19T05:44:19;22.70;;;21.00;;
76119;SDS011;64852;48.092;-1.640;2023-10-19T05:46:44;24.90;;;22.70;;
76119;SDS011;64852;48.092;-1.640;2023-10-19T05:49:11;22.85;;;21.05;;
76119;SDS011;64852;48.092;-1.640;2023-10-19T05:51:37;23.88;;;22.08;;
76119;SDS011;64852;48.092;-1.640;2023-10-19T05:54:04;25.42;;;23.00;;
76119;SDS011;64852;48.092;-1.640;2023-10-19T05:56:30;23.75;;;21.85;;
76119;SDS011;64852;48.092;-1.640;2023-10-19T06:01:23;23.60;;;21.80;;
76119;SDS011;64852;48.092;-1.640;2023-10-19T06:03:48;24.23;;;22.42;;
76119;SDS011;64852;48.092;-1.640;2023-10-19T06:06:15;24.25;;;22.35;;
76119;SDS011;64852;48.092;-1.640;2023-10-19T06:08:41;23.90;;;22.10;;
76119;SDS011;64852;48.092;-1.640;2023-10-19T06:11:07;23.87;;;22.07;;
76119;SDS011;64852;48.092;-1.640;2023-10-19T06:13:32;24.13;;;22.33;;
76119;SDS011;64852;48.092;-1.640;2023-10-19T06:15:58;24.10;;;22.20;;
76119;SDS011;64852;48.092;-1.640;2023-10-19T06:18:24;23.27;;;21.53;;
76119;SDS011;64852;48.092;-1.640;2023-10-19T06:20:49;23.37;;;21.67;;
76119;SDS011;64852;48.092;-1.640;2023-10-19T06:23:16;23.00;;;21.30;;
76119;SDS011;64852;48.092;-1.640;2023-10-19T06:25:43;21.80;;;20.20;;
76119;SDS011;64852;48.092;-1.640;2023-10-19T06:28:09;22.00;;;20.40;;
76119;SDS011;64852;48.092;-1.640;2023-10-19T06:30:36;23.63;;;21.60;;
76119;SDS011;64852;48.092;-1.640;2023-10-19T06:33:02;24.20;;;22.20;;
76119;SDS011;64852;48.092;-1.640;2023-10-19T06:35:31;22.05;;;20.45;;
76119;SDS011;64852;48.092;-1.640;2023-10-19T06:37:58;23.15;;;21.35;;
76119;SDS011;64852;48.092;-1.640;2023-10-19T06:40:25;21.80;;;20.20;;
76119;SDS011;64852;48.092;-1.640;2023-10-19T06:42:56;22.30;;;20.70;;
76119;SDS011;64852;48.092;-1.640;2023-10-19T06:45:23;21.33;;;19.80;;
76119;SDS011;64852;48.092;-1.640;2023-10-19T06:47:50;21.55;;;20.02;;
76119;SDS011;64852;48.092;-1.640;2023-10-19T06:50:17;21.58;;;19.98;;
76119;SDS011;64852;48.092;-1.640;2023-10-19T06:52:45;22.92;;;20.77;;
76119;SDS011;64852;48.092;-1.640;2023-10-19T06:55:13;22.13;;;20.25;;
76119;SDS011;64852;48.092;-1.640;2023-10-19T06:57:41;23.77;;;21.93;;
76119;SDS011;64852;48.092;-1.640;2023-10-19T07:00:14;25.55;;;23.55;;
76119;SDS011;64852;48.092;-1.640;2023-10-19T07:02:44;27.58;;;25.48;;
76119;SDS011;64852;48.092;-1.640;2023-10-19T10:52:30;23.45;;;21.65;;
76119;SDS011;64852;48.092;-1.640;2023-10-19T10:55:17;24.85;;;23.00;;
76119;SDS011;64852;48.092;-1.640;2023-10-19T10:57:43;26.15;;;24.30;;
76119;SDS011;64852;48.092;-1.640;2023-10-19T11:02:42;35.58;;;32.08;;
76119;SDS011;64852;48.092;-1.640;2023-10-19T11:07:40;42.13;;;38.13;;
76119;SDS011;64852;48.092;-1.640;2023-10-19T11:10:07;37.28;;;33.28;;
76119;SDS011;64852;48.092;-1.640;2023-10-19T11:22:32;33.63;;;30.38;;
76119;SDS011;64852;48.092;-1.640;2023-10-19T11:32:37;25.27;;;22.80;;
76119;SDS011;64852;48.092;-1.640;2023-10-19T13:13:33;29.17;;;26.38;;
76119;SDS011;64852;48.092;-1.640;2023-10-19T17:42:26;26.92;;;24.73;;
76119;SDS011;64852;48.092;-1.640;2023-10-19T17:52:11;23.67;;;21.58;;
76119;SDS011;64852;48.092;-1.640;2023-10-19T17:54:38;24.25;;;22.15;;
76119;SDS011;64852;48.092;-1.640;2023-10-19T17:57:04;24.00;;;21.90;;
76119;SDS011;64852;48.092;-1.640;2023-10-19T17:59:30;23.70;;;21.60;;
76119;SDS011;64852;48.092;-1.640;2023-10-19T18:01:56;22.88;;;20.88;;
76119;SDS011;64852;48.092;-1.640;2023-10-19T18:09:13;23.50;;;21.40;;
76119;SDS011;64852;48.092;-1.640;2023-10-19T18:14:05;23.60;;;21.50;;
76119;SDS011;64852;48.092;-1.640;2023-10-19T18:16:33;24.02;;;21.83;;
76119;SDS011;64852;48.092;-1.640;2023-10-19T18:18:59;22.65;;;20.65;;
76119;SDS011;64852;48.092;-1.640;2023-10-19T18:21:25;23.38;;;21.27;;
76119;SDS011;64852;48.092;-1.640;2023-10-19T18:23:51;24.63;;;22.42;;
76119;SDS011;64852;48.092;-1.640;2023-10-19T18:26:17;25.20;;;23.00;;
76119;SDS011;64852;48.092;-1.640;2023-10-19T18:28:45;23.87;;;21.77;;
76119;SDS011;64852;48.092;-1.640;2023-10-19T18:33:38;23.17;;;21.17;;
76119;SDS011;64852;48.092;-1.640;2023-10-19T18:36:04;23.70;;;21.60;;
76119;SDS011;64852;48.092;-1.640;2023-10-19T18:38:34;24.67;;;22.48;;
76119;SDS011;64852;48.092;-1.640;2023-10-19T18:41:03;23.60;;;21.42;;
76119;SDS011;64852;48.092;-1.640;2023-10-19T18:43:32;26.92;;;23.52;;
76119;SDS011;64852;48.092;-1.640;2023-10-19T18:45:59;23.23;;;21.13;;
76119;SDS011;64852;48.092;-1.640;2023-10-19T18:51:04;24.35;;;22.15;;
76119;SDS011;64852;48.092;-1.640;2023-10-19T18:53:33;24.10;;;21.90;;
76119;SDS011;64852;48.092;-1.640;2023-10-19T18:56:00;25.60;;;23.20;;
76119;SDS011;64852;48.092;-1.640;2023-10-19T18:58:26;24.88;;;22.58;;
76119;SDS011;64852;48.092;-1.640;2023-10-19T19:00:52;25.10;;;22.80;;
76119;SDS011;64852;48.092;-1.640;2023-10-19T19:03:19;24.05;;;21.85;;
76119;SDS011;64852;48.092;-1.640;2023-10-19T19:05:46;23.98;;;21.77;;
76119;SDS011;64852;48.092;-1.640;2023-10-19T19:08:13;25.20;;;22.90;;
76119;SDS011;64852;48.092;-1.640;2023-10-19T19:10:39;25.27;;;22.98;;
76119;SDS011;64852;48.092;-1.640;2023-10-19T19:13:05;26.05;;;23.70;;
76119;SDS011;64852;48.092;-1.640;2023-10-19T19:15:31;25.60;;;23.30;;
76119;SDS011;64852;48.092;-1.640;2023-10-19T19:17:57;32.43;;;23.83;;
76119;SDS011;64852;48.092;-1.640;2023-10-19T19:20:23;25.10;;;22.80;;
76119;SDS011;64852;48.092;-1.640;2023-10-19T19:22:49;24.85;;;22.55;;
76119;SDS011;64852;48.092;-1.640;2023-10-19T19:25:14;24.42;;;22.13;;
76119;SDS011;64852;48.092;-1.640;2023-10-19T19:27:40;25.33;;;22.83;;
76119;SDS011;64852;48.092;-1.640;2023-10-19T19:30:07;24.58;;;22.33;;
76119;SDS011;64852;48.092;-1.640;2023-10-19T19:32:35;29.90;;;27.30;;
76119;SDS011;64852;48.092;-1.640;2023-10-19T19:35:02;29.33;;;26.73;;
76119;SDS011;64852;48.092;-1.640;2023-10-19T19:37:32;29.05;;;26.55;;
76119;SDS011;64852;48.092;-1.640;2023-10-19T19:40:00;31.42;;;28.63;;
76119;SDS011;64852;48.092;-1.640;2023-10-19T19:42:30;29.58;;;27.08;;
76119;SDS011;64852;48.092;-1.640;2023-10-19T19:44:56;28.05;;;23.90;;
76119;SDS011;64852;48.092;-1.640;2023-10-19T19:47:22;24.05;;;21.85;;
76119;SDS011;64852;48.092;-1.640;2023-10-19T19:49:48;25.88;;;23.42;;
76119;SDS011;64852;48.092;-1.640;2023-10-19T19:52:13;25.00;;;22.60;;
76119;SDS011;64852;48.092;-1.640;2023-10-19T19:54:40;25.88;;;23.48;;
76119;SDS011;64852;48.092;-1.640;2023-10-19T19:57:05;25.27;;;22.90;;
76119;SDS011;64852;48.092;-1.640;2023-10-19T20:01:56;25.27;;;22.88;;
76119;SDS011;64852;48.092;-1.640;2023-10-19T20:04:22;24.93;;;22.63;;
76119;SDS011;64852;48.092;-1.640;2023-10-19T20:06:50;24.83;;;22.52;;
76119;SDS011;64852;48.092;-1.640;2023-10-19T20:09:16;28.05;;;25.55;;
76119;SDS011;64852;48.092;-1.640;2023-10-19T20:11:42;31.75;;;28.85;;
76119;SDS011;64852;48.092;-1.640;2023-10-19T20:14:08;27.30;;;24.50;;
76119;SDS011;64852;48.092;-1.640;2023-10-19T20:16:34;27.67;;;25.17;;
76119;SDS011;64852;48.092;-1.640;2023-10-19T20:19:00;27.80;;;25.25;;
76119;SDS011;64852;48.092;-1.640;2023-10-19T20:21:26;29.00;;;26.27;;
76119;SDS011;64852;48.092;-1.640;2023-10-19T20:23:52;27.90;;;25.30;;
76119;SDS011;64852;48.092;-1.640;2023-10-19T20:26:18;27.40;;;24.80;;
76119;SDS011;64852;48.092;-1.640;2023-10-19T20:28:44;26.75;;;24.25;;
76119;SDS011;64852;48.092;-1.640;2023-10-19T20:31:10;29.30;;;26.40;;
76119;SDS011;64852;48.092;-1.640;2023-10-19T20:33:35;27.75;;;25.05;;
76119;SDS011;64852;48.092;-1.640;2023-10-19T20:36:01;26.00;;;23.60;;
76119;SDS011;64852;48.092;-1.640;2023-10-19T20:38:28;25.90;;;23.40;;
76119;SDS011;64852;48.092;-1.640;2023-10-19T20:40:53;24.73;;;22.33;;
76119;SDS011;64852;48.092;-1.640;2023-10-19T20:43:20;24.40;;;22.10;;
76119;SDS011;64852;48.092;-1.640;2023-10-19T20:45:46;26.40;;;24.00;;
76119;SDS011;64852;48.092;-1.640;2023-10-19T20:48:14;26.30;;;23.88;;
76119;SDS011;64852;48.092;-1.640;2023-10-19T20:50:41;29.20;;;26.50;;
76119;SDS011;64852;48.092;-1.640;2023-10-19T20:53:08;28.80;;;26.20;;
76119;SDS011;64852;48.092;-1.640;2023-10-19T20:55:34;32.40;;;29.50;;
76119;SDS011;64852;48.092;-1.640;2023-10-19T21:02:51;26.88;;;24.40;;
76119;SDS011;64852;48.092;-1.640;2023-10-19T21:05:17;25.70;;;23.30;;
76119;SDS011;64852;48.092;-1.640;2023-10-19T21:07:47;26.08;;;23.67;;
76119;SDS011;64852;48.092;-1.640;2023-10-19T21:10:13;29.75;;;27.05;;
76119;SDS011;64852;48.092;-1.640;2023-10-19T21:12:43;26.52;;;24.13;;
76119;SDS011;64852;48.092;-1.640;2023-10-19T21:15:10;25.90;;;23.50;;
76119;SDS011;64852;48.092;-1.640;2023-10-19T21:17:47;26.67;;;24.08;;
76119;SDS011;64852;48.092;-1.640;2023-10-19T21:20:14;24.48;;;22.17;;
76119;SDS011;64852;48.092;-1.640;2023-10-19T21:22:43;24.73;;;22.40;;
76119;SDS011;64852;48.092;-1.640;2023-10-19T21:25:13;24.83;;;22.42;;
76119;SDS011;64852;48.092;-1.640;2023-10-19T21:27:40;29.65;;;27.05;;
76119;SDS011;64852;48.092;-1.640;2023-10-19T21:30:07;30.63;;;28.02;;
76119;SDS011;64852;48.092;-1.640;2023-10-19T21:32:34;32.83;;;30.13;;
76119;SDS011;64852;48.092;-1.640;2023-10-19T21:35:01;38.08;;;34.88;;
76119;SDS011;64852;48.092;-1.640;2023-10-19T21:37:27;40.33;;;37.03;;
76119;SDS011;64852;48.092;-1.640;2023-10-19T21:39:53;36.60;;;33.67;;
76119;SDS011;64852;48.092;-1.640;2023-10-19T21:42:19;26.35;;;23.85;;
76119;SDS011;64852;48.092;-1.640;2023-10-19T21:44:45;26.40;;;23.90;;
76119;SDS011;64852;48.092;-1.640;2023-10-19T21:47:11;27.30;;;23.13;;
76119;SDS011;64852;48.092;-1.640;2023-10-19T21:49:37;24.97;;;22.30;;
76119;SDS011;64852;48.092;-1.640;2023-10-19T21:52:03;24.10;;;21.88;;
76119;SDS011;64852;48.092;-1.640;2023-10-19T21:54:28;24.42;;;22.15;;
76119;SDS011;64852;48.092;-1.640;2023-10-19T21:56:54;25.85;;;23.50;;
76119;SDS011;64852;48.092;-1.640;2023-10-19T21:59:20;25.93;;;23.53;;
76119;SDS011;64852;48.092;-1.640;2023-10-19T22:01:46;28.67;;;26.07;;
76119;SDS011;64852;48.092;-1.640;2023-10-19T22:04:11;27.92;;;25.40;;
76119;SDS011;64852;48.092;-1.640;2023-10-19T22:06:38;28.47;;;25.87;;
76119;SDS011;64852;48.092;-1.640;2023-10-19T22:09:04;25.88;;;23.48;;
76119;SDS011;64852;48.092;-1.640;2023-10-19T22:11:31;26.20;;;23.80;;
76119;SDS011;64852;48.092;-1.640;2023-10-19T22:13:59;26.27;;;23.73;;
76119;SDS011;64852;48.092;-1.640;2023-10-19T22:16:25;25.73;;;23.33;;
76119;SDS011;64852;48.092;-1.640;2023-10-19T22:18:50;24.90;;;22.60;;
76119;SDS011;64852;48.092;-1.640;2023-10-19T22:21:17;24.70;;;22.40;;
76119;SDS011;64852;48.092;-1.640;2023-10-19T22:23:44;25.83;;;23.42;;
76119;SDS011;64852;48.092;-1.640;2023-10-19T22:26:10;27.05;;;24.55;;
76119;SDS011;64852;48.092;-1.640;2023-10-19T22:28:36;27.05;;;24.60;;
76119;SDS011;64852;48.092;-1.640;2023-10-19T22:31:02;27.40;;;24.90;;
76119;SDS011;64852;48.092;-1.640;2023-10-19T22:33:28;29.92;;;27.02;;
76119;SDS011;64852;48.092;-1.640;2023-10-19T22:35:54;27.27;;;24.60;;
76119;SDS011;64852;48.092;-1.640;2023-10-19T22:38:20;25.47;;;23.17;;
76119;SDS011;64852;48.092;-1.640;2023-10-19T22:40:45;25.63;;;23.33;;
76119;SDS011;64852;48.092;-1.640;2023-10-19T22:45:38;28.23;;;25.75;;
76119;SDS011;64852;48.092;-1.640;2023-10-19T22:48:03;26.70;;;24.40;;
76119;SDS011;64852;48.092;-1.640;2023-10-19T22:50:29;24.67;;;22.48;;
76119;SDS011;64852;48.092;-1.640;2023-10-19T22:52:56;25.10;;;22.80;;
76119;SDS011;64852;48.092;-1.640;2023-10-19T22:55:22;24.45;;;22.17;;
76119;SDS011;64852;48.092;-1.640;2023-10-19T22:57:48;26.53;;;24.03;;
76119;SDS011;64852;48.092;-1.640;2023-10-19T23:00:16;27.88;;;25.30;;
76119;SDS011;64852;48.092;-1.640;2023-10-19T23:05:12;25.20;;;22.90;;
76119;SDS011;64852;48.092;-1.640;2023-10-19T23:07:39;25.80;;;23.40;;
76119;SDS011;64852;48.092;-1.640;2023-10-19T23:10:06;25.77;;;23.45;;
76119;SDS011;64852;48.092;-1.640;2023-10-19T23:12:32;25.75;;;23.45;;
76119;SDS011;64852;48.092;-1.640;2023-10-19T23:14:59;25.25;;;22.95;;
76119;SDS011;64852;48.092;-1.640;2023-10-19T23:17:25;25.63;;;23.33;;
76119;SDS011;64852;48.092;-1.640;2023-10-19T23:19:57;53.70;;;27.48;;
76119;SDS011;64852;48.092;-1.640;2023-10-19T23:22:23;26.80;;;24.40;;
76119;SDS011;64852;48.092;-1.640;2023-10-19T23:24:50;26.60;;;24.20;;
76119;SDS011;64852;48.092;-1.640;2023-10-19T23:27:16;27.52;;;24.98;;
76119;SDS011;64852;48.092;-1.640;2023-10-19T23:29:42;36.45;;;33.45;;
76119;SDS011;64852;48.092;-1.640;2023-10-19T23:32:10;34.28;;;31.38;;
76119;SDS011;64852;48.092;-1.640;2023-10-19T23:34:42;33.85;;;31.05;;
76119;SDS011;64852;48.092;-1.640;2023-10-19T23:37:07;34.58;;;31.83;;
76119;SDS011;64852;48.092;-1.640;2023-10-19T23:39:36;38.72;;;35.63;;
76119;SDS011;64852;48.092;-1.640;2023-10-19T23:42:02;26.13;;;23.73;;
76119;SDS011;64852;48.092;-1.640;2023-10-19T23:44:29;25.33;;;23.02;;
76119;SDS011;64852;48.092;-1.640;2023-10-19T23:46:57;25.17;;;22.90;;
76119;SDS011;64852;48.092;-1.640;2023-10-19T23:49:23;25.60;;;23.30;;
76119;SDS011;64852;48.092;-1.640;2023-10-19T23:51:49;23.83;;;21.73;;
76119;SDS011;64852;48.092;-1.640;2023-10-19T23:54:15;24.00;;;21.83;;
76119;SDS011;64852;48.092;-1.640;2023-10-19T23:56:41;25.17;;;22.98;;
76119;SDS011;64852;48.092;-1.640;2023-10-19T23:59:07;25.50;;;23.15;;
